Pagrindinis puslapis
METAR-TAF:

METAR-TAF

Oro uostai :

Nakhon Ratchasima, Tailandas

platuma: 14-56-58N, ilguma: 102-18-45E, Aukštis: 233 m

Dabartinis oras

Ataskaita buvo paskelbta 8 valandos ir 33 minutes, ne 11:00 UTC
Vėjas 5 kt iš Vakarų/Pietvakarių
Temperatūra 28°C
Drėgmė 79%
Slėgis 1005 hPa
Matomumas 10 km arba daugiau
Mažai debesys ne aukštis 2500 ft

METAR: VTUQ 301100Z 25005KT 9999 FEW025 28/24 Q1005 NOSIG

Laikas: 02:33 (19:33 UTC)

Prognozė

Ataskaita buvo paskelbta 2 valandos ir 33 minutes, ne 17:00 UTC
Prognozė galioja nuo 30 metu 18 UTC su 01 metu 18 UTC
Vėjas 5 kt iš Vakarų
Matomumas 10 km arba daugiau
Išsisklaidę debesys ne aukštis 3000 ft
Laikinai
nuo 01 metu 09 UTC su 01 metu 12 UTC
Vėjas 15 kt iš Pietų/Pietryčių
Matomumas: 4500 m
Mažai debesys ne aukštis 1800 ft, Liūtiniai kamuoliniai debesys.
Išsisklaidę debesys ne aukštis 2000 ft
Su prošvaistėmis ne aukštis 2500 ft
perkūnija, lietus

TAF: VTUQ 301700Z 3018/0118 26005KT 9999 SCT030 TEMPO 0109/0112 15015KT 4500 TSRA FEW018CB SCT020 BKN025

Orai ataskaitas ir orų prognozės (METAR, TAF).

turimą stotys yra geltonos ir raudonos taškus žemėlapyje.

Perkelti pele per norėdami pamatyti stoties vardą.

Tada spustelėkite, norėdami matyti oro stebėjimo ir prognozės.

Norėdami pakeisti žemėlapį: spustelėkite ant žalios mygtukų su juodo kryžiaus žemyn,; žalią mygtuką su brūkšneliu, jei norite nutolinti; arba žalių rodyklių gretimoms žemėlapius.


METAR-TAF: